sensor_id;sensor_type;location;lat;lon;timestamp;P1;durP1;ratioP1;P2;durP2;ratioP2
40807;SDS011;26523;52.504;13.498;2022-09-27T00:01:13;2.40;;;1.10;;
40807;SDS011;26523;52.504;13.498;2022-09-27T00:03:39;2.30;;;1.30;;
40807;SDS011;26523;52.504;13.498;2022-09-27T00:08:33;1.50;;;1.30;;
40807;SDS011;26523;52.504;13.498;2022-09-27T00:11:00;3.03;;;1.20;;
40807;SDS011;26523;52.504;13.498;2022-09-27T00:13:27;1.90;;;1.10;;
40807;SDS011;26523;52.504;13.498;2022-09-27T00:15:57;1.45;;;1.10;;
40807;SDS011;26523;52.504;13.498;2022-09-27T00:18:24;2.67;;;1.10;;
40807;SDS011;26523;52.504;13.498;2022-09-27T00:20:49;2.03;;;1.30;;
40807;SDS011;26523;52.504;13.498;2022-09-27T00:23:15;2.25;;;1.38;;
40807;SDS011;26523;52.504;13.498;2022-09-27T00:25:41;1.40;;;0.85;;
40807;SDS011;26523;52.504;13.498;2022-09-27T00:28:07;5.00;;;1.45;;
40807;SDS011;26523;52.504;13.498;2022-09-27T00:30:33;3.15;;;1.42;;
40807;SDS011;26523;52.504;13.498;2022-09-27T00:32:59;5.22;;;1.25;;
40807;SDS011;26523;52.504;13.498;2022-09-27T00:35:24;1.88;;;1.20;;
40807;SDS011;26523;52.504;13.498;2022-09-27T00:37:50;1.92;;;1.20;;
40807;SDS011;26523;52.504;13.498;2022-09-27T00:40:16;1.85;;;1.00;;
40807;SDS011;26523;52.504;13.498;2022-09-27T00:42:42;4.18;;;1.40;;
40807;SDS011;26523;52.504;13.498;2022-09-27T00:45:11;3.03;;;1.30;;
40807;SDS011;26523;52.504;13.498;2022-09-27T00:47:40;1.73;;;1.15;;
40807;SDS011;26523;52.504;13.498;2022-09-27T00:53:03;2.65;;;1.30;;
40807;SDS011;26523;52.504;13.498;2022-09-27T00:55:40;2.92;;;1.10;;
40807;SDS011;26523;52.504;13.498;2022-09-27T00:58:11;4.53;;;1.15;;
40807;SDS011;26523;52.504;13.498;2022-09-27T01:00:39;2.38;;;1.00;;
40807;SDS011;26523;52.504;13.498;2022-09-27T01:03:08;2.65;;;1.42;;
40807;SDS011;26523;52.504;13.498;2022-09-27T01:05:36;3.00;;;1.35;;
40807;SDS011;26523;52.504;13.498;2022-09-27T01:08:03;5.05;;;1.27;;
40807;SDS011;26523;52.504;13.498;2022-09-27T01:10:31;2.95;;;1.00;;
40807;SDS011;26523;52.504;13.498;2022-09-27T01:15:45;3.05;;;1.15;;
40807;SDS011;26523;52.504;13.498;2022-09-27T01:29:21;2.75;;;1.23;;
40807;SDS011;26523;52.504;13.498;2022-09-27T01:34:36;3.08;;;1.38;;
40807;SDS011;26523;52.504;13.498;2022-09-27T01:42:20;1.63;;;0.90;;
40807;SDS011;26523;52.504;13.498;2022-09-27T01:48:00;2.03;;;0.93;;
40807;SDS011;26523;52.504;13.498;2022-09-27T01:50:23;1.50;;;1.10;;
40807;SDS011;26523;52.504;13.498;2022-09-27T01:52:56;7.22;;;1.05;;
40807;SDS011;26523;52.504;13.498;2022-09-27T01:55:28;2.50;;;1.30;;
40807;SDS011;26523;52.504;13.498;2022-09-27T02:00:47;2.97;;;1.30;;
40807;SDS011;26523;52.504;13.498;2022-09-27T02:03:16;1.73;;;1.05;;
40807;SDS011;26523;52.504;13.498;2022-09-27T02:08:17;2.17;;;1.15;;
40807;SDS011;26523;52.504;13.498;2022-09-27T02:10:55;3.60;;;0.80;;
40807;SDS011;26523;52.504;13.498;2022-09-27T02:13:32;2.60;;;1.58;;
40807;SDS011;26523;52.504;13.498;2022-09-27T02:21:33;2.50;;;1.05;;
40807;SDS011;26523;52.504;13.498;2022-09-27T02:24:04;1.10;;;0.75;;
40807;SDS011;26523;52.504;13.498;2022-09-27T02:26:36;1.52;;;1.00;;
40807;SDS011;26523;52.504;13.498;2022-09-27T02:29:09;2.97;;;0.95;;
40807;SDS011;26523;52.504;13.498;2022-09-27T02:31:55;0.88;;;0.65;;
40807;SDS011;26523;52.504;13.498;2022-09-27T02:34:22;1.88;;;1.10;;
40807;SDS011;26523;52.504;13.498;2022-09-27T02:36:51;0.88;;;0.52;;
40807;SDS011;26523;52.504;13.498;2022-09-27T02:39:17;5.43;;;1.40;;
40807;SDS011;26523;52.504;13.498;2022-09-27T02:41:43;1.02;;;0.80;;
40807;SDS011;26523;52.504;13.498;2022-09-27T02:44:10;0.80;;;0.63;;
40807;SDS011;26523;52.504;13.498;2022-09-27T02:49:39;6.20;;;0.98;;
40807;SDS011;26523;52.504;13.498;2022-09-27T02:52:24;3.40;;;1.00;;
40807;SDS011;26523;52.504;13.498;2022-09-27T02:55:19;1.73;;;0.90;;
40807;SDS011;26523;52.504;13.498;2022-09-27T03:00:56;3.90;;;0.90;;
40807;SDS011;26523;52.504;13.498;2022-09-27T03:03:49;1.58;;;0.80;;
40807;SDS011;26523;52.504;13.498;2022-09-27T03:06:19;2.80;;;1.42;;
40807;SDS011;26523;52.504;13.498;2022-09-27T03:08:47;1.40;;;0.68;;
40807;SDS011;26523;52.504;13.498;2022-09-27T03:11:13;1.92;;;1.02;;
40807;SDS011;26523;52.504;13.498;2022-09-27T03:13:38;2.35;;;1.23;;
40807;SDS011;26523;52.504;13.498;2022-09-27T03:16:05;1.27;;;0.90;;
40807;SDS011;26523;52.504;13.498;2022-09-27T03:18:31;2.60;;;1.00;;
40807;SDS011;26523;52.504;13.498;2022-09-27T03:20:58;1.42;;;0.90;;
40807;SDS011;26523;52.504;13.498;2022-09-27T03:23:24;2.50;;;0.93;;
40807;SDS011;26523;52.504;13.498;2022-09-27T03:25:50;1.92;;;1.23;;
40807;SDS011;26523;52.504;13.498;2022-09-27T03:28:16;2.38;;;1.08;;
40807;SDS011;26523;52.504;13.498;2022-09-27T03:30:43;2.40;;;1.30;;
40807;SDS011;26523;52.504;13.498;2022-09-27T03:33:09;1.95;;;0.95;;
40807;SDS011;26523;52.504;13.498;2022-09-27T03:35:35;1.65;;;1.02;;
40807;SDS011;26523;52.504;13.498;2022-09-27T03:38:01;3.08;;;1.05;;
40807;SDS011;26523;52.504;13.498;2022-09-27T03:40:27;2.47;;;0.93;;
40807;SDS011;26523;52.504;13.498;2022-09-27T03:42:53;4.00;;;1.27;;
40807;SDS011;26523;52.504;13.498;2022-09-27T03:45:19;3.50;;;1.45;;
40807;SDS011;26523;52.504;13.498;2022-09-27T03:47:45;2.20;;;1.20;;
40807;SDS011;26523;52.504;13.498;2022-09-27T03:50:11;3.85;;;1.45;;
40807;SDS011;26523;52.504;13.498;2022-09-27T03:52:37;6.10;;;1.20;;
40807;SDS011;26523;52.504;13.498;2022-09-27T03:55:03;2.85;;;1.20;;
40807;SDS011;26523;52.504;13.498;2022-09-27T03:57:29;2.53;;;1.20;;
40807;SDS011;26523;52.504;13.498;2022-09-27T03:59:56;3.13;;;1.25;;
40807;SDS011;26523;52.504;13.498;2022-09-27T04:02:24;1.63;;;1.20;;
40807;SDS011;26523;52.504;13.498;2022-09-27T04:04:52;3.42;;;1.58;;
40807;SDS011;26523;52.504;13.498;2022-09-27T04:07:18;2.72;;;1.25;;
40807;SDS011;26523;52.504;13.498;2022-09-27T04:09:44;2.50;;;1.42;;
40807;SDS011;26523;52.504;13.498;2022-09-27T04:12:11;3.00;;;1.45;;
40807;SDS011;26523;52.504;13.498;2022-09-27T04:14:37;2.80;;;1.27;;
40807;SDS011;26523;52.504;13.498;2022-09-27T04:17:03;3.65;;;1.65;;
40807;SDS011;26523;52.504;13.498;2022-09-27T04:19:28;2.30;;;1.40;;
40807;SDS011;26523;52.504;13.498;2022-09-27T04:21:54;6.10;;;1.55;;
40807;SDS011;26523;52.504;13.498;2022-09-27T04:24:19;2.38;;;1.40;;
40807;SDS011;26523;52.504;13.498;2022-09-27T04:26:45;2.08;;;1.10;;
40807;SDS011;26523;52.504;13.498;2022-09-27T04:29:13;2.08;;;1.10;;
40807;SDS011;26523;52.504;13.498;2022-09-27T04:31:39;4.38;;;1.70;;
40807;SDS011;26523;52.504;13.498;2022-09-27T04:34:06;4.05;;;1.50;;
40807;SDS011;26523;52.504;13.498;2022-09-27T04:36:32;2.35;;;1.30;;
40807;SDS011;26523;52.504;13.498;2022-09-27T04:38:59;1.73;;;1.10;;
40807;SDS011;26523;52.504;13.498;2022-09-27T04:41:27;6.88;;;1.23;;
40807;SDS011;26523;52.504;13.498;2022-09-27T04:43:53;2.47;;;1.30;;
40807;SDS011;26523;52.504;13.498;2022-09-27T04:46:20;2.78;;;1.50;;
40807;SDS011;26523;52.504;13.498;2022-09-27T04:48:48;2.15;;;1.23;;
40807;SDS011;26523;52.504;13.498;2022-09-27T04:51:15;3.25;;;1.48;;
40807;SDS011;26523;52.504;13.498;2022-09-27T04:53:45;2.25;;;1.20;;
40807;SDS011;26523;52.504;13.498;2022-09-27T04:56:12;3.47;;;1.35;;
40807;SDS011;26523;52.504;13.498;2022-09-27T04:58:38;3.25;;;1.17;;
40807;SDS011;26523;52.504;13.498;2022-09-27T05:01:04;2.03;;;0.90;;
40807;SDS011;26523;52.504;13.498;2022-09-27T05:03:30;2.00;;;1.20;;
40807;SDS011;26523;52.504;13.498;2022-09-27T05:05:56;2.13;;;1.30;;
40807;SDS011;26523;52.504;13.498;2022-09-27T05:08:22;2.83;;;1.55;;
40807;SDS011;26523;52.504;13.498;2022-09-27T05:10:48;2.80;;;1.33;;
40807;SDS011;26523;52.504;13.498;2022-09-27T05:13:14;6.90;;;1.30;;
40807;SDS011;26523;52.504;13.498;2022-09-27T05:15:40;3.47;;;1.23;;
40807;SDS011;26523;52.504;13.498;2022-09-27T05:18:06;5.13;;;1.67;;
40807;SDS011;26523;52.504;13.498;2022-09-27T05:20:33;3.13;;;1.50;;
40807;SDS011;26523;52.504;13.498;2022-09-27T05:23:02;5.32;;;1.20;;
40807;SDS011;26523;52.504;13.498;2022-09-27T05:25:28;2.65;;;1.35;;
40807;SDS011;26523;52.504;13.498;2022-09-27T05:27:55;3.60;;;1.17;;
40807;SDS011;26523;52.504;13.498;2022-09-27T05:30:22;1.60;;;1.20;;
40807;SDS011;26523;52.504;13.498;2022-09-27T05:32:48;5.35;;;1.65;;
40807;SDS011;26523;52.504;13.498;2022-09-27T05:35:14;2.67;;;1.52;;
40807;SDS011;26523;52.504;13.498;2022-09-27T05:37:42;2.97;;;1.38;;
40807;SDS011;26523;52.504;13.498;2022-09-27T05:40:08;2.60;;;1.30;;
40807;SDS011;26523;52.504;13.498;2022-09-27T05:42:33;3.00;;;1.50;;
40807;SDS011;26523;52.504;13.498;2022-09-27T05:45:03;2.92;;;1.30;;
40807;SDS011;26523;52.504;13.498;2022-09-27T05:47:29;3.78;;;1.48;;
40807;SDS011;26523;52.504;13.498;2022-09-27T05:49:55;2.53;;;1.27;;
40807;SDS011;26523;52.504;13.498;2022-09-27T05:52:21;2.92;;;1.45;;
40807;SDS011;26523;52.504;13.498;2022-09-27T05:54:46;4.00;;;1.40;;
40807;SDS011;26523;52.504;13.498;2022-09-27T05:57:12;2.85;;;1.35;;
40807;SDS011;26523;52.504;13.498;2022-09-27T05:59:37;2.20;;;1.38;;
40807;SDS011;26523;52.504;13.498;2022-09-27T06:02:04;3.60;;;1.35;;
40807;SDS011;26523;52.504;13.498;2022-09-27T06:04:30;3.30;;;1.48;;
40807;SDS011;26523;52.504;13.498;2022-09-27T06:06:56;2.72;;;1.42;;
40807;SDS011;26523;52.504;13.498;2022-09-27T06:09:23;9.25;;;1.75;;
40807;SDS011;26523;52.504;13.498;2022-09-27T06:11:49;5.32;;;1.45;;
40807;SDS011;26523;52.504;13.498;2022-09-27T06:14:15;3.55;;;1.33;;
40807;SDS011;26523;52.504;13.498;2022-09-27T06:16:40;2.35;;;1.17;;
40807;SDS011;26523;52.504;13.498;2022-09-27T06:19:06;2.97;;;1.02;;
40807;SDS011;26523;52.504;13.498;2022-09-27T06:21:32;3.22;;;1.40;;
40807;SDS011;26523;52.504;13.498;2022-09-27T06:23:58;3.45;;;1.35;;
40807;SDS011;26523;52.504;13.498;2022-09-27T06:26:24;2.25;;;1.25;;
40807;SDS011;26523;52.504;13.498;2022-09-27T06:28:53;4.15;;;1.55;;
40807;SDS011;26523;52.504;13.498;2022-09-27T06:31:19;3.40;;;1.67;;
40807;SDS011;26523;52.504;13.498;2022-09-27T06:33:46;4.50;;;1.75;;
40807;SDS011;26523;52.504;13.498;2022-09-27T06:36:14;3.60;;;1.55;;
40807;SDS011;26523;52.504;13.498;2022-09-27T06:38:40;2.97;;;1.38;;
40807;SDS011;26523;52.504;13.498;2022-09-27T06:41:06;4.50;;;1.80;;
40807;SDS011;26523;52.504;13.498;2022-09-27T06:43:33;4.95;;;2.00;;
40807;SDS011;26523;52.504;13.498;2022-09-27T06:45:59;4.10;;;1.67;;
40807;SDS011;26523;52.504;13.498;2022-09-27T06:48:34;5.72;;;1.92;;
40807;SDS011;26523;52.504;13.498;2022-09-27T06:51:02;4.15;;;2.17;;
40807;SDS011;26523;52.504;13.498;2022-09-27T06:53:28;5.68;;;2.60;;
40807;SDS011;26523;52.504;13.498;2022-09-27T06:55:57;5.07;;;2.00;;
40807;SDS011;26523;52.504;13.498;2022-09-27T06:58:25;5.38;;;2.00;;
40807;SDS011;26523;52.504;13.498;2022-09-27T07:01:10;6.43;;;2.30;;
40807;SDS011;26523;52.504;13.498;2022-09-27T07:03:36;13.80;;;1.92;;
40807;SDS011;26523;52.504;13.498;2022-09-27T07:06:05;4.35;;;2.17;;
40807;SDS011;26523;52.504;13.498;2022-09-27T07:08:36;5.32;;;2.00;;
40807;SDS011;26523;52.504;13.498;2022-09-27T07:11:03;4.57;;;2.00;;
40807;SDS011;26523;52.504;13.498;2022-09-27T07:13:31;4.38;;;1.80;;
40807;SDS011;26523;52.504;13.498;2022-09-27T07:15:59;6.00;;;1.77;;
40807;SDS011;26523;52.504;13.498;2022-09-27T07:18:25;2.90;;;1.73;;
40807;SDS011;26523;52.504;13.498;2022-09-27T07:20:52;3.15;;;1.73;;
40807;SDS011;26523;52.504;13.498;2022-09-27T07:23:18;6.70;;;2.90;;
40807;SDS011;26523;52.504;13.498;2022-09-27T07:25:44;8.95;;;2.47;;
40807;SDS011;26523;52.504;13.498;2022-09-27T07:28:12;7.60;;;2.33;;
40807;SDS011;26523;52.504;13.498;2022-09-27T07:30:39;8.23;;;2.45;;
40807;SDS011;26523;52.504;13.498;2022-09-27T07:33:06;5.15;;;1.90;;
40807;SDS011;26523;52.504;13.498;2022-09-27T07:35:38;2.72;;;1.50;;
40807;SDS011;26523;52.504;13.498;2022-09-27T07:38:04;4.18;;;1.70;;
40807;SDS011;26523;52.504;13.498;2022-09-27T07:40:32;4.65;;;1.95;;
40807;SDS011;26523;52.504;13.498;2022-09-27T07:43:00;3.83;;;1.48;;
40807;SDS011;26523;52.504;13.498;2022-09-27T07:45:26;3.58;;;1.60;;
40807;SDS011;26523;52.504;13.498;2022-09-27T07:47:52;2.78;;;1.73;;
40807;SDS011;26523;52.504;13.498;2022-09-27T07:50:19;4.80;;;1.67;;
40807;SDS011;26523;52.504;13.498;2022-09-27T07:52:45;3.38;;;1.80;;
40807;SDS011;26523;52.504;13.498;2022-09-27T07:55:15;8.73;;;2.20;;
40807;SDS011;26523;52.504;13.498;2022-09-27T07:57:41;3.92;;;1.80;;
40807;SDS011;26523;52.504;13.498;2022-09-27T08:00:10;4.90;;;1.80;;
40807;SDS011;26523;52.504;13.498;2022-09-27T08:02:41;5.47;;;1.58;;
40807;SDS011;26523;52.504;13.498;2022-09-27T08:05:07;5.38;;;1.40;;
40807;SDS011;26523;52.504;13.498;2022-09-27T08:07:33;2.65;;;1.33;;
40807;SDS011;26523;52.504;13.498;2022-09-27T08:09:59;6.40;;;2.28;;
40807;SDS011;26523;52.504;13.498;2022-09-27T08:12:24;4.25;;;1.50;;
40807;SDS011;26523;52.504;13.498;2022-09-27T08:14:50;3.33;;;1.80;;
40807;SDS011;26523;52.504;13.498;2022-09-27T08:17:16;4.18;;;1.85;;
40807;SDS011;26523;52.504;13.498;2022-09-27T08:19:43;3.85;;;1.60;;
40807;SDS011;26523;52.504;13.498;2022-09-27T08:22:09;3.15;;;1.55;;
40807;SDS011;26523;52.504;13.498;2022-09-27T08:24:38;2.30;;;1.15;;
40807;SDS011;26523;52.504;13.498;2022-09-27T08:27:04;5.68;;;1.73;;
40807;SDS011;26523;52.504;13.498;2022-09-27T08:29:32;4.40;;;1.38;;
40807;SDS011;26523;52.504;13.498;2022-09-27T08:32:01;3.45;;;1.60;;
40807;SDS011;26523;52.504;13.498;2022-09-27T08:34:27;2.53;;;1.48;;
40807;SDS011;26523;52.504;13.498;2022-09-27T08:36:53;4.75;;;1.83;;
40807;SDS011;26523;52.504;13.498;2022-09-27T08:39:20;3.35;;;1.83;;
40807;SDS011;26523;52.504;13.498;2022-09-27T08:41:53;2.92;;;1.40;;
40807;SDS011;26523;52.504;13.498;2022-09-27T08:47:21;3.40;;;1.88;;
40807;SDS011;26523;52.504;13.498;2022-09-27T08:52:58;4.47;;;1.85;;
40807;SDS011;26523;52.504;13.498;2022-09-27T08:55:44;4.43;;;1.60;;
40807;SDS011;26523;52.504;13.498;2022-09-27T08:58:27;3.03;;;1.58;;
40807;SDS011;26523;52.504;13.498;2022-09-27T09:01:14;4.90;;;2.13;;
40807;SDS011;26523;52.504;13.498;2022-09-27T09:03:48;3.47;;;1.90;;
40807;SDS011;26523;52.504;13.498;2022-09-27T09:22:59;4.57;;;1.95;;
40807;SDS011;26523;52.504;13.498;2022-09-27T09:28:41;3.05;;;1.80;;
40807;SDS011;26523;52.504;13.498;2022-09-27T09:31:52;3.60;;;1.92;;
40807;SDS011;26523;52.504;13.498;2022-09-27T09:37:19;2.80;;;1.30;;
40807;SDS011;26523;52.504;13.498;2022-09-27T09:39:47;2.65;;;1.30;;
40807;SDS011;26523;52.504;13.498;2022-09-27T09:44:58;4.95;;;1.40;;
40807;SDS011;26523;52.504;13.498;2022-09-27T09:47:36;1.88;;;1.27;;
40807;SDS011;26523;52.504;13.498;2022-09-27T09:50:19;3.42;;;1.50;;
40807;SDS011;26523;52.504;13.498;2022-09-27T09:52:54;2.85;;;1.35;;
40807;SDS011;26523;52.504;13.498;2022-09-27T09:55:25;3.28;;;1.40;;
40807;SDS011;26523;52.504;13.498;2022-09-27T09:58:03;3.03;;;1.10;;
40807;SDS011;26523;52.504;13.498;2022-09-27T10:00:41;5.22;;;1.63;;
40807;SDS011;26523;52.504;13.498;2022-09-27T10:03:08;1.33;;;0.88;;
40807;SDS011;26523;52.504;13.498;2022-09-27T10:05:34;2.97;;;1.20;;
40807;SDS011;26523;52.504;13.498;2022-09-27T10:08:00;2.22;;;1.08;;
40807;SDS011;26523;52.504;13.498;2022-09-27T10:10:28;2.63;;;1.20;;
40807;SDS011;26523;52.504;13.498;2022-09-27T10:12:55;3.85;;;1.25;;
40807;SDS011;26523;52.504;13.498;2022-09-27T10:15:22;4.35;;;1.08;;
40807;SDS011;26523;52.504;13.498;2022-09-27T10:17:51;3.30;;;0.98;;
40807;SDS011;26523;52.504;13.498;2022-09-27T10:22:48;1.67;;;0.80;;
40807;SDS011;26523;52.504;13.498;2022-09-27T10:25:19;1.77;;;1.05;;
40807;SDS011;26523;52.504;13.498;2022-09-27T10:27:46;2.25;;;1.00;;
40807;SDS011;26523;52.504;13.498;2022-09-27T10:30:21;3.35;;;1.23;;
40807;SDS011;26523;52.504;13.498;2022-09-27T10:32:53;2.08;;;1.35;;
40807;SDS011;26523;52.504;13.498;2022-09-27T10:37:53;2.28;;;1.33;;
40807;SDS011;26523;52.504;13.498;2022-09-27T10:40:36;2.40;;;1.20;;
40807;SDS011;26523;52.504;13.498;2022-09-27T10:43:01;3.08;;;1.20;;
40807;SDS011;26523;52.504;13.498;2022-09-27T10:45:31;3.25;;;1.45;;
40807;SDS011;26523;52.504;13.498;2022-09-27T10:47:58;3.17;;;1.40;;
40807;SDS011;26523;52.504;13.498;2022-09-27T10:50:29;2.25;;;1.10;;
40807;SDS011;26523;52.504;13.498;2022-09-27T10:53:18;2.17;;;1.20;;
40807;SDS011;26523;52.504;13.498;2022-09-27T10:55:48;2.42;;;1.35;;
40807;SDS011;26523;52.504;13.498;2022-09-27T10:58:17;3.35;;;1.48;;
40807;SDS011;26523;52.504;13.498;2022-09-27T11:00:55;2.25;;;1.30;;
40807;SDS011;26523;52.504;13.498;2022-09-27T11:03:28;4.72;;;1.15;;
40807;SDS011;26523;52.504;13.498;2022-09-27T11:05:56;1.52;;;0.90;;
40807;SDS011;26523;52.504;13.498;2022-09-27T11:13:31;1.30;;;0.90;;
40807;SDS011;26523;52.504;13.498;2022-09-27T11:24:36;2.17;;;1.40;;
40807;SDS011;26523;52.504;13.498;2022-09-27T11:27:08;4.03;;;1.27;;
40807;SDS011;26523;52.504;13.498;2022-09-27T11:32:27;1.08;;;0.80;;
40807;SDS011;26523;52.504;13.498;2022-09-27T11:56:48;2.75;;;1.50;;
40807;SDS011;26523;52.504;13.498;2022-09-27T11:59:29;3.83;;;1.90;;
40807;SDS011;26523;52.504;13.498;2022-09-27T12:05:38;3.97;;;1.17;;
40807;SDS011;26523;52.504;13.498;2022-09-27T12:13:56;1.55;;;1.00;;
40807;SDS011;26523;52.504;13.498;2022-09-27T12:16:29;1.10;;;0.60;;
40807;SDS011;26523;52.504;13.498;2022-09-27T12:18:56;5.47;;;0.77;;
40807;SDS011;26523;52.504;13.498;2022-09-27T12:21:23;0.77;;;0.52;;
40807;SDS011;26523;52.504;13.498;2022-09-27T12:23:52;0.93;;;0.70;;
40807;SDS011;26523;52.504;13.498;2022-09-27T12:39:57;2.17;;;0.90;;
40807;SDS011;26523;52.504;13.498;2022-09-27T12:45:16;2.58;;;1.00;;
40807;SDS011;26523;52.504;13.498;2022-09-27T12:47:55;3.67;;;1.25;;
40807;SDS011;26523;52.504;13.498;2022-09-27T12:50:34;1.98;;;0.93;;
40807;SDS011;26523;52.504;13.498;2022-09-27T12:58:23;3.40;;;1.33;;
40807;SDS011;26523;52.504;13.498;2022-09-27T13:00:58;2.85;;;1.27;;
40807;SDS011;26523;52.504;13.498;2022-09-27T13:03:48;3.40;;;1.10;;
40807;SDS011;26523;52.504;13.498;2022-09-27T13:14:25;3.13;;;1.30;;
40807;SDS011;26523;52.504;13.498;2022-09-27T13:16:53;3.42;;;1.13;;
40807;SDS011;26523;52.504;13.498;2022-09-27T13:22:00;1.80;;;0.82;;
40807;SDS011;26523;52.504;13.498;2022-09-27T13:29:51;3.63;;;0.80;;
40807;SDS011;26523;52.504;13.498;2022-09-27T13:32:21;1.10;;;0.75;;
40807;SDS011;26523;52.504;13.498;2022-09-27T13:34:50;1.77;;;1.00;;
40807;SDS011;26523;52.504;13.498;2022-09-27T13:40:10;3.45;;;1.10;;
40807;SDS011;26523;52.504;13.498;2022-09-27T13:45:25;3.83;;;1.13;;
40807;SDS011;26523;52.504;13.498;2022-09-27T13:47:56;6.07;;;0.90;;
40807;SDS011;26523;52.504;13.498;2022-09-27T13:50:28;3.13;;;0.90;;
40807;SDS011;26523;52.504;13.498;2022-09-27T13:55:52;2.85;;;1.08;;
40807;SDS011;26523;52.504;13.498;2022-09-27T14:00:54;6.07;;;1.35;;
40807;SDS011;26523;52.504;13.498;2022-09-27T14:06:13;2.03;;;1.15;;
40807;SDS011;26523;52.504;13.498;2022-09-27T14:08:44;5.38;;;1.30;;
40807;SDS011;26523;52.504;13.498;2022-09-27T14:11:23;2.20;;;1.10;;
40807;SDS011;26523;52.504;13.498;2022-09-27T14:13:54;2.53;;;1.17;;
40807;SDS011;26523;52.504;13.498;2022-09-27T14:16:22;4.75;;;1.95;;
40807;SDS011;26523;52.504;13.498;2022-09-27T14:18:55;2.08;;;1.20;;
40807;SDS011;26523;52.504;13.498;2022-09-27T14:21:33;2.92;;;1.40;;
40807;SDS011;26523;52.504;13.498;2022-09-27T14:30:00;2.95;;;1.65;;
40807;SDS011;26523;52.504;13.498;2022-09-27T14:32:51;1.73;;;1.00;;
40807;SDS011;26523;52.504;13.498;2022-09-27T14:35:23;1.48;;;0.90;;
40807;SDS011;26523;52.504;13.498;2022-09-27T14:38:18;4.65;;;1.15;;
40807;SDS011;26523;52.504;13.498;2022-09-27T14:43:17;5.90;;;0.90;;
40807;SDS011;26523;52.504;13.498;2022-09-27T14:45:44;1.73;;;0.80;;
40807;SDS011;26523;52.504;13.498;2022-09-27T14:48:17;1.00;;;0.60;;
40807;SDS011;26523;52.504;13.498;2022-09-27T14:56:15;1.98;;;0.80;;
40807;SDS011;26523;52.504;13.498;2022-09-27T14:58:44;1.23;;;0.85;;
40807;SDS011;26523;52.504;13.498;2022-09-27T15:01:17;3.65;;;0.90;;
40807;SDS011;26523;52.504;13.498;2022-09-27T15:03:47;1.27;;;0.63;;
40807;SDS011;26523;52.504;13.498;2022-09-27T15:06:14;2.40;;;1.02;;
40807;SDS011;26523;52.504;13.498;2022-09-27T15:08:41;3.60;;;1.38;;
40807;SDS011;26523;52.504;13.498;2022-09-27T15:11:11;1.23;;;0.95;;
40807;SDS011;26523;52.504;13.498;2022-09-27T15:13:37;11.52;;;1.25;;
40807;SDS011;26523;52.504;13.498;2022-09-27T15:16:12;2.95;;;1.05;;
40807;SDS011;26523;52.504;13.498;2022-09-27T15:21:28;4.05;;;1.48;;
40807;SDS011;26523;52.504;13.498;2022-09-27T15:23:56;4.55;;;1.45;;
40807;SDS011;26523;52.504;13.498;2022-09-27T15:29:16;4.22;;;1.90;;
40807;SDS011;26523;52.504;13.498;2022-09-27T15:31:44;3.30;;;1.40;;
40807;SDS011;26523;52.504;13.498;2022-09-27T15:34:15;3.72;;;1.65;;
40807;SDS011;26523;52.504;13.498;2022-09-27T15:39:28;3.22;;;1.40;;
40807;SDS011;26523;52.504;13.498;2022-09-27T15:44:37;5.32;;;1.90;;
40807;SDS011;26523;52.504;13.498;2022-09-27T15:50:41;2.70;;;1.27;;
40807;SDS011;26523;52.504;13.498;2022-09-27T15:52:52;5.10;;;1.35;;
40807;SDS011;26523;52.504;13.498;2022-09-27T15:55:23;2.53;;;1.30;;
40807;SDS011;26523;52.504;13.498;2022-09-27T15:57:51;4.13;;;1.58;;
40807;SDS011;26523;52.504;13.498;2022-09-27T16:00:24;4.93;;;1.65;;
40807;SDS011;26523;52.504;13.498;2022-09-27T16:02:50;3.35;;;1.27;;
40807;SDS011;26523;52.504;13.498;2022-09-27T16:05:16;4.43;;;1.50;;
40807;SDS011;26523;52.504;13.498;2022-09-27T16:07:42;2.42;;;1.42;;
40807;SDS011;26523;52.504;13.498;2022-09-27T16:10:12;3.13;;;1.50;;
40807;SDS011;26523;52.504;13.498;2022-09-27T16:12:39;3.95;;;1.60;;
40807;SDS011;26523;52.504;13.498;2022-09-27T16:15:05;3.60;;;1.38;;
40807;SDS011;26523;52.504;13.498;2022-09-27T16:17:31;2.67;;;1.20;;
40807;SDS011;26523;52.504;13.498;2022-09-27T16:19:57;2.42;;;1.17;;
40807;SDS011;26523;52.504;13.498;2022-09-27T16:22:23;3.47;;;1.08;;
40807;SDS011;26523;52.504;13.498;2022-09-27T16:24:48;4.13;;;1.40;;
40807;SDS011;26523;52.504;13.498;2022-09-27T16:27:21;2.15;;;1.15;;
40807;SDS011;26523;52.504;13.498;2022-09-27T16:29:51;2.08;;;1.13;;
40807;SDS011;26523;52.504;13.498;2022-09-27T16:32:22;1.23;;;0.70;;
40807;SDS011;26523;52.504;13.498;2022-09-27T16:34:47;1.92;;;1.00;;
40807;SDS011;26523;52.504;13.498;2022-09-27T16:37:14;3.28;;;1.30;;
40807;SDS011;26523;52.504;13.498;2022-09-27T16:39:39;1.85;;;0.82;;
40807;SDS011;26523;52.504;13.498;2022-09-27T16:42:05;1.58;;;0.75;;
40807;SDS011;26523;52.504;13.498;2022-09-27T16:44:31;2.80;;;1.10;;
40807;SDS011;26523;52.504;13.498;2022-09-27T16:47:01;1.75;;;0.73;;
40807;SDS011;26523;52.504;13.498;2022-09-27T16:49:27;1.98;;;0.90;;
40807;SDS011;26523;52.504;13.498;2022-09-27T16:52:12;4.32;;;1.10;;
40807;SDS011;26523;52.504;13.498;2022-09-27T16:54:40;4.03;;;1.20;;
40807;SDS011;26523;52.504;13.498;2022-09-27T16:57:06;2.90;;;1.25;;
40807;SDS011;26523;52.504;13.498;2022-09-27T16:59:31;3.70;;;1.33;;
40807;SDS011;26523;52.504;13.498;2022-09-27T17:01:57;7.72;;;1.88;;
40807;SDS011;26523;52.504;13.498;2022-09-27T17:04:26;3.03;;;1.35;;
40807;SDS011;26523;52.504;13.498;2022-09-27T17:06:53;2.55;;;1.20;;
40807;SDS011;26523;52.504;13.498;2022-09-27T17:09:19;2.85;;;1.48;;
40807;SDS011;26523;52.504;13.498;2022-09-27T17:11:46;3.13;;;1.55;;
40807;SDS011;26523;52.504;13.498;2022-09-27T17:14:12;3.95;;;1.40;;
40807;SDS011;26523;52.504;13.498;2022-09-27T17:16:41;3.58;;;1.73;;
40807;SDS011;26523;52.504;13.498;2022-09-27T17:19:08;3.20;;;1.20;;
40807;SDS011;26523;52.504;13.498;2022-09-27T17:21:37;3.03;;;1.02;;
40807;SDS011;26523;52.504;13.498;2022-09-27T17:24:04;5.20;;;1.95;;
40807;SDS011;26523;52.504;13.498;2022-09-27T17:26:30;2.90;;;1.60;;
40807;SDS011;26523;52.504;13.498;2022-09-27T17:28:57;1.80;;;1.00;;
40807;SDS011;26523;52.504;13.498;2022-09-27T17:31:27;2.22;;;1.20;;
40807;SDS011;26523;52.504;13.498;2022-09-27T17:33:55;2.88;;;1.52;;
40807;SDS011;26523;52.504;13.498;2022-09-27T17:36:22;3.00;;;1.50;;
40807;SDS011;26523;52.504;13.498;2022-09-27T17:38:49;3.33;;;1.80;;
40807;SDS011;26523;52.504;13.498;2022-09-27T17:41:20;5.30;;;1.38;;
40807;SDS011;26523;52.504;13.498;2022-09-27T17:43:50;5.40;;;1.60;;
40807;SDS011;26523;52.504;13.498;2022-09-27T17:46:32;7.88;;;2.28;;
40807;SDS011;26523;52.504;13.498;2022-09-27T17:48:59;4.53;;;1.85;;
40807;SDS011;26523;52.504;13.498;2022-09-27T17:51:45;5.93;;;2.20;;
40807;SDS011;26523;52.504;13.498;2022-09-27T17:54:12;7.22;;;2.67;;
40807;SDS011;26523;52.504;13.498;2022-09-27T17:56:39;8.30;;;2.85;;
40807;SDS011;26523;52.504;13.498;2022-09-27T17:59:06;6.00;;;1.85;;
40807;SDS011;26523;52.504;13.498;2022-09-27T18:01:33;4.53;;;1.95;;
40807;SDS011;26523;52.504;13.498;2022-09-27T18:04:02;4.35;;;2.03;;
40807;SDS011;26523;52.504;13.498;2022-09-27T18:06:29;6.35;;;2.00;;
40807;SDS011;26523;52.504;13.498;2022-09-27T18:08:55;5.97;;;2.45;;
40807;SDS011;26523;52.504;13.498;2022-09-27T18:11:24;5.03;;;2.00;;
40807;SDS011;26523;52.504;13.498;2022-09-27T18:13:53;5.07;;;1.88;;
40807;SDS011;26523;52.504;13.498;2022-09-27T18:16:20;5.30;;;2.05;;